Clinton, Illinois
Current Conditions -  °F | °C
As of 10:35 AM on Saturday 22 Nov 2014 (Local Time) from KAAA Reporting Station
Broken Clouds Broken Clouds  
Wind Chill: 55°   Ceiling: 8000
Heat Index: 55°   Visibility: 10mi
Dew Point: 45°   Wind: 12mph
Humidity: 70%   Direction: 210°SSW
Pressure: 30.02"   Gusts: 18mph
Location:  40.15°N, 88.96°W
Report Text: KAAA 221635Z AUTO 21010G16KT 10SM SCT026 BKN080 13/07 A3002 RMK AO2 T01250072
Loading
Personal Weather Stations






























Interactive Weather Map New forecast layout! Learn more

10-Day Weather Forecast

Advertisements
Track Severe Weather on mobile